createdAt,value
2023-03-15T00:03:55.170Z,74.52
2023-03-15T00:08:48.066Z,77.68
2023-03-15T00:13:44.624Z,80.08
2023-03-15T00:18:39.454Z,76.99
2023-03-15T00:23:36.898Z,78.07
2023-03-15T00:28:31.958Z,79.42
2023-03-15T00:33:30.051Z,80.17
2023-03-15T00:38:26.453Z,80.47
2023-03-15T00:43:20.132Z,84.81
2023-03-15T00:48:27.815Z,80.25
2023-03-15T00:53:25.364Z,83.02
2023-03-15T00:58:23.468Z,84.69
2023-03-15T01:03:23.411Z,81.42
2023-03-15T01:08:17.401Z,80.28
2023-03-15T01:13:11.332Z,78.71
2023-03-15T01:18:05.945Z,75.95
2023-03-15T01:23:00.197Z,76.30
2023-03-15T01:27:53.233Z,75.30
2023-03-15T01:32:46.486Z,75.86
2023-03-15T01:37:41.016Z,76.81
2023-03-15T01:42:54.428Z,73.20
2023-03-15T01:47:45.249Z,69.17
2023-03-15T01:52:44.163Z,73.66
2023-03-15T01:57:47.692Z,74.72
2023-03-15T02:02:39.982Z,73.93
2023-03-15T02:07:36.707Z,73.19
2023-03-15T02:12:28.886Z,74.71
2023-03-15T02:17:26.222Z,75.43
2023-03-15T02:22:26.364Z,78.38
2023-03-15T02:27:17.851Z,77.66
2023-03-15T02:32:16.289Z,77.57
2023-03-15T02:37:12.743Z,77.70
2023-03-15T02:42:05.727Z,76.65
2023-03-15T02:47:04.092Z,75.81
2023-03-15T02:51:59.993Z,75.53
2023-03-15T02:56:59.563Z,76.92
2023-03-15T03:01:51.170Z,75.06
2023-03-15T03:07:05.277Z,78.10
2023-03-15T03:12:03.362Z,77.25
2023-03-15T03:17:02.852Z,79.25
2023-03-15T03:21:54.730Z,79.17
2023-03-15T03:26:52.616Z,76.34
2023-03-15T03:31:50.861Z,77.28
2023-03-15T03:36:44.378Z,78.08
2023-03-15T03:41:38.413Z,76.54
2023-03-15T03:46:34.753Z,78.03
2023-03-15T03:51:25.342Z,77.74
2023-03-15T03:56:23.729Z,77.11
2023-03-15T04:01:14.582Z,76.80
2023-03-15T04:06:13.087Z,66.23
2023-03-15T04:11:14.738Z,65.45
2023-03-15T04:16:10.784Z,67.14
2023-03-15T04:21:25.636Z,66.95
2023-03-15T04:26:26.939Z,67.40
2023-03-15T04:31:38.272Z,67.06
2023-03-15T04:36:55.452Z,67.32
2023-03-15T04:42:20.631Z,68.57
2023-03-15T04:47:31.367Z,68.84
2023-03-15T04:52:48.965Z,70.18
2023-03-15T04:58:01.042Z,67.98
2023-03-15T05:03:07.074Z,67.11
2023-03-15T05:08:22.775Z,68.29
2023-03-15T05:13:34.620Z,67.16
2023-03-15T05:18:58.167Z,67.37
2023-03-15T05:24:12.910Z,68.35
2023-03-15T05:29:38.281Z,67.67
2023-03-15T05:35:00.709Z,67.97
2023-03-15T05:40:14.257Z,68.72
2023-03-15T05:45:23.317Z,69.10
2023-03-15T05:50:45.342Z,69.36
2023-03-15T05:55:50.922Z,69.78
2023-03-15T06:01:02.399Z,68.72
2023-03-15T06:06:14.544Z,69.11
2023-03-15T06:11:11.210Z,70.33
2023-03-15T06:16:04.694Z,70.72
2023-03-15T06:21:02.846Z,70.77
2023-03-15T06:26:03.164Z,70.41
2023-03-15T06:31:02.173Z,70.42
2023-03-15T06:36:00.204Z,70.09
2023-03-15T06:40:53.203Z,81.97
2023-03-15T06:45:47.605Z,70.27
2023-03-15T06:50:48.011Z,71.37
2023-03-15T06:55:42.818Z,70.33
2023-03-15T07:00:35.618Z,70.47
2023-03-15T07:05:34.466Z,78.47
2023-03-15T07:10:34.181Z,71.42
2023-03-15T07:15:31.434Z,70.82
2023-03-15T07:20:23.802Z,70.60
2023-03-15T07:25:26.394Z,70.11
2023-03-15T07:30:24.128Z,70.77
2023-03-15T07:35:40.336Z,74.70
2023-03-15T07:40:42.526Z,71.86
2023-03-15T07:45:44.265Z,71.72
2023-03-15T07:50:37.546Z,72.53
2023-03-15T08:00:45.806Z,71.99
2023-03-15T08:05:37.124Z,71.21
2023-03-15T08:10:27.834Z,71.05
2023-03-15T08:15:31.741Z,71.10
2023-03-15T08:20:24.646Z,72.33
2023-03-15T08:25:15.792Z,75.16
2023-03-15T08:30:06.156Z,75.13
2023-03-15T08:34:56.007Z,73.19
2023-03-15T08:39:48.299Z,73.80
2023-03-15T08:44:38.750Z,74.21
2023-03-15T08:49:28.567Z,71.34
2023-03-15T08:54:18.472Z,72.61
2023-03-15T08:59:19.266Z,70.61
2023-03-15T09:04:12.123Z,71.11
2023-03-15T09:09:01.946Z,73.06
2023-03-15T09:13:52.307Z,71.19
2023-03-15T09:18:45.798Z,64.50
2023-03-15T09:23:36.075Z,67.13
2023-03-15T09:28:26.066Z,67.18
2023-03-15T09:33:16.793Z,63.77
2023-03-15T09:38:09.786Z,66.22
2023-03-15T09:43:05.381Z,68.47
2023-03-15T09:48:03.185Z,60.23
2023-03-15T09:52:55.373Z,68.01
2023-03-15T09:57:52.230Z,67.44
2023-03-15T10:02:45.875Z,65.71
2023-03-15T10:07:35.932Z,69.21
2023-03-15T10:12:29.282Z,63.27
2023-03-15T10:17:24.512Z,65.06
2023-03-15T10:22:18.814Z,62.40
2023-03-15T10:27:17.369Z,58.03
2023-03-15T10:32:08.243Z,60.17
2023-03-15T10:37:06.554Z,57.67
2023-03-15T10:41:56.317Z,56.28
2023-03-15T10:46:46.091Z,56.49
2023-03-15T10:51:41.588Z,52.64
2023-03-15T10:56:38.497Z,51.63
2023-03-15T11:01:30.754Z,54.12
2023-03-15T11:06:25.198Z,57.10
2023-03-15T11:11:15.708Z,54.84
2023-03-15T11:16:10.558Z,49.39
2023-03-15T11:21:01.117Z,51.38
2023-03-15T11:25:57.060Z,54.79
2023-03-15T11:30:48.689Z,51.63
2023-03-15T11:35:49.241Z,50.95
2023-03-15T11:40:41.778Z,50.90
2023-03-15T11:45:34.985Z,53.97
2023-03-15T11:50:48.228Z,51.25
2023-03-15T11:55:38.561Z,49.73
2023-03-15T12:00:43.331Z,52.00
2023-03-15T12:05:51.304Z,48.76
2023-03-15T12:10:49.903Z,46.95
2023-03-15T12:15:50.367Z,52.05
2023-03-15T12:20:43.337Z,48.18
2023-03-15T12:25:49.037Z,45.73
2023-03-15T12:30:56.838Z,48.75
2023-03-15T12:35:49.224Z,47.21
2023-03-15T12:40:53.264Z,44.04
2023-03-15T12:45:49.519Z,47.99
2023-03-15T12:50:43.805Z,45.77
2023-03-15T12:55:35.860Z,45.66
2023-03-15T13:00:30.749Z,48.53
2023-03-15T13:05:23.255Z,48.70
2023-03-15T13:10:26.322Z,47.04
2023-03-15T13:15:21.794Z,49.53
2023-03-15T13:20:33.099Z,48.99
2023-03-15T13:25:28.503Z,46.15
2023-03-15T13:30:35.984Z,47.70
2023-03-15T13:35:26.038Z,45.18
2023-03-15T13:40:20.054Z,45.10
2023-03-15T13:45:18.105Z,42.32
2023-03-15T13:50:09.513Z,46.79
2023-03-15T13:54:59.811Z,43.74
2023-03-15T13:59:54.818Z,43.31
2023-03-15T14:04:45.146Z,45.57
2023-03-15T14:09:36.000Z,44.73
2023-03-15T14:14:27.557Z,44.52
2023-03-15T14:19:22.253Z,41.64
2023-03-15T14:24:17.210Z,46.02
2023-03-15T14:29:09.874Z,47.83
2023-03-15T14:34:08.292Z,46.57
2023-03-15T14:39:02.544Z,46.40
2023-03-15T14:43:52.335Z,47.57
2023-03-15T14:48:43.096Z,47.17
2023-03-15T14:53:37.451Z,45.66
2023-03-15T14:58:30.188Z,45.87
2023-03-15T15:03:23.012Z,47.75
2023-03-15T15:08:15.943Z,45.70
2023-03-15T15:13:08.210Z,48.15
2023-03-15T15:18:02.615Z,45.36
2023-03-15T15:22:55.265Z,47.62
2023-03-15T15:27:47.685Z,44.19
2023-03-15T15:32:37.510Z,47.11
2023-03-15T15:37:30.666Z,45.98
2023-03-15T15:42:22.775Z,43.69
2023-03-15T15:47:13.023Z,47.64
2023-03-15T15:52:04.840Z,45.42
2023-03-15T15:56:59.319Z,41.77
2023-03-15T16:02:00.629Z,47.39
2023-03-15T16:06:54.544Z,47.62
2023-03-15T16:11:47.805Z,47.42
2023-03-15T16:16:41.751Z,46.41
2023-03-15T16:21:34.154Z,45.30
2023-03-15T16:26:25.482Z,46.17
2023-03-15T16:31:19.136Z,47.66
2023-03-15T16:36:22.688Z,46.90
2023-03-15T16:41:14.356Z,47.39
2023-03-15T16:46:06.800Z,45.79
2023-03-15T16:50:57.041Z,47.23
2023-03-15T16:55:51.769Z,47.94
2023-03-15T17:00:44.623Z,48.76
2023-03-15T17:05:37.871Z,48.36
2023-03-15T17:10:29.443Z,48.14
2023-03-15T17:15:24.784Z,49.19
2023-03-15T17:20:22.600Z,48.80
2023-03-15T17:25:15.481Z,48.33
2023-03-15T17:30:09.547Z,49.71
2023-03-15T17:35:03.948Z,49.74
2023-03-15T17:39:54.183Z,48.99
2023-03-15T17:44:44.483Z,50.03
2023-03-15T17:49:35.169Z,49.66
2023-03-15T17:54:31.828Z,50.34
2023-03-15T17:59:22.638Z,50.74
2023-03-15T18:04:16.812Z,49.21
2023-03-15T18:09:08.219Z,50.50
2023-03-15T18:14:01.939Z,49.72
2023-03-15T18:18:52.874Z,50.81
2023-03-15T18:23:43.958Z,50.11
2023-03-15T18:28:34.923Z,50.25
2023-03-15T18:33:28.943Z,50.21
2023-03-15T18:38:19.932Z,52.34
2023-03-15T18:43:13.195Z,52.28
2023-03-15T18:48:04.910Z,52.55
2023-03-15T18:52:57.947Z,52.14
2023-03-15T18:57:51.605Z,50.85
2023-03-15T19:02:46.358Z,52.02
2023-03-15T19:07:38.246Z,51.80
2023-03-15T19:12:34.321Z,51.51
2023-03-15T19:17:30.570Z,51.73
2023-03-15T19:22:22.065Z,51.88
2023-03-15T19:27:18.020Z,52.49
2023-03-15T19:32:10.817Z,52.46
2023-03-15T19:37:02.008Z,51.47
2023-03-15T19:41:53.953Z,52.43
2023-03-15T19:46:45.562Z,51.89
2023-03-15T19:51:47.887Z,52.05
2023-03-15T19:56:39.052Z,52.69
2023-03-15T20:01:32.921Z,52.78
2023-03-15T20:06:25.783Z,52.78
2023-03-15T20:11:21.503Z,52.84
2023-03-15T20:16:13.267Z,52.87
2023-03-15T20:21:05.957Z,56.24
2023-03-15T20:26:07.195Z,55.97
2023-03-15T20:31:03.256Z,56.41
2023-03-15T20:35:56.532Z,56.14
2023-03-15T20:40:47.341Z,55.54
2023-03-15T20:45:40.354Z,55.95
2023-03-15T20:50:34.536Z,56.01
2023-03-15T20:55:26.407Z,55.76
2023-03-15T21:00:20.826Z,56.05
2023-03-15T21:05:13.757Z,56.34
2023-03-15T21:10:09.642Z,56.52
2023-03-15T21:14:59.650Z,56.95
2023-03-15T21:19:50.476Z,57.45
2023-03-15T21:24:54.768Z,57.98
2023-03-15T21:29:55.349Z,57.94
2023-03-15T21:34:47.408Z,58.12
2023-03-15T21:39:39.579Z,58.25
2023-03-15T21:44:34.291Z,58.50
2023-03-15T21:49:28.856Z,58.40
2023-03-15T21:54:20.886Z,58.49
2023-03-15T21:59:11.338Z,58.44
2023-03-15T22:04:02.153Z,58.71
2023-03-15T22:08:54.660Z,58.85
2023-03-15T22:13:45.721Z,59.06
2023-03-15T22:18:37.561Z,59.03
2023-03-15T22:23:29.364Z,59.39
2023-03-15T22:28:25.278Z,59.53
2023-03-15T22:33:16.972Z,59.68
2023-03-15T22:38:10.468Z,59.69
2023-03-15T22:43:01.890Z,60.02
2023-03-15T22:47:56.056Z,59.38
2023-03-15T22:52:47.918Z,59.33
2023-03-15T22:57:39.222Z,60.32
2023-03-15T23:02:30.252Z,60.04
2023-03-15T23:07:22.702Z,59.74
2023-03-15T23:12:15.374Z,59.49
2023-03-15T23:17:07.700Z,60.43
2023-03-15T23:22:00.746Z,60.45
2023-03-15T23:26:57.597Z,61.84
2023-03-15T23:31:48.589Z,62.48
2023-03-15T23:36:40.266Z,62.38
2023-03-15T23:41:32.410Z,63.42
2023-03-15T23:46:27.101Z,63.38
2023-03-15T23:51:19.813Z,62.53
2023-03-15T23:56:14.460Z,62.65
